sensor_id;sensor_type;location;lat;lon;timestamp;pressure;altitude;pressure_sealevel;temperature;humidity
57628;BME280;43451;49.060;10.616;2022-11-24T00:01:54;95963.59;;;5.42;100.00
57628;BME280;43451;49.060;10.616;2022-11-24T00:04:19;95952.50;;;5.51;100.00
57628;BME280;43451;49.060;10.616;2022-11-24T00:06:45;95964.38;;;5.43;100.00
57628;BME280;43451;49.060;10.616;2022-11-24T00:09:10;95952.81;;;5.42;100.00
57628;BME280;43451;49.060;10.616;2022-11-24T00:11:36;95967.03;;;5.39;100.00
57628;BME280;43451;49.060;10.616;2022-11-24T00:14:02;95960.41;;;5.26;100.00
57628;BME280;43451;49.060;10.616;2022-11-24T00:16:33;95953.06;;;5.19;100.00
57628;BME280;43451;49.060;10.616;2022-11-24T00:19:00;95961.06;;;5.05;100.00
57628;BME280;43451;49.060;10.616;2022-11-24T00:21:27;95965.31;;;5.09;100.00
57628;BME280;43451;49.060;10.616;2022-11-24T00:23:53;95969.59;;;5.14;100.00
57628;BME280;43451;49.060;10.616;2022-11-24T00:26:21;95963.38;;;5.06;100.00
57628;BME280;43451;49.060;10.616;2022-11-24T00:28:49;95977.97;;;5.05;100.00
57628;BME280;43451;49.060;10.616;2022-11-24T00:33:42;95976.50;;;5.11;100.00
57628;BME280;43451;49.060;10.616;2022-11-24T00:36:07;95972.22;;;5.07;100.00
57628;BME280;43451;49.060;10.616;2022-11-24T00:38:32;95984.88;;;5.03;100.00
57628;BME280;43451;49.060;10.616;2022-11-24T00:40:58;95967.50;;;4.93;100.00
57628;BME280;43451;49.060;10.616;2022-11-24T00:43:23;95973.75;;;5.04;100.00
57628;BME280;43451;49.060;10.616;2022-11-24T00:45:49;95977.44;;;4.85;100.00
57628;BME280;43451;49.060;10.616;2022-11-24T00:48:14;95983.13;;;4.73;100.00
57628;BME280;43451;49.060;10.616;2022-11-24T00:50:40;95998.44;;;4.69;100.00
57628;BME280;43451;49.060;10.616;2022-11-24T00:53:05;95996.97;;;4.79;100.00
57628;BME280;43451;49.060;10.616;2022-11-24T00:55:31;96003.22;;;4.90;100.00
57628;BME280;43451;49.060;10.616;2022-11-24T00:57:56;96000.13;;;4.88;100.00
57628;BME280;43451;49.060;10.616;2022-11-24T01:00:22;96002.47;;;4.89;100.00
57628;BME280;43451;49.060;10.616;2022-11-24T01:02:47;95998.66;;;4.94;100.00
57628;BME280;43451;49.060;10.616;2022-11-24T01:05:12;96013.28;;;4.97;100.00
57628;BME280;43451;49.060;10.616;2022-11-24T01:07:38;96017.94;;;5.00;100.00
57628;BME280;43451;49.060;10.616;2022-11-24T01:10:04;96006.84;;;5.08;100.00
57628;BME280;43451;49.060;10.616;2022-11-24T01:12:30;96008.00;;;5.07;100.00
57628;BME280;43451;49.060;10.616;2022-11-24T01:14:57;96008.00;;;5.07;100.00
57628;BME280;43451;49.060;10.616;2022-11-24T01:17:23;96023.38;;;5.10;100.00
57628;BME280;43451;49.060;10.616;2022-11-24T01:19:48;96027.97;;;5.06;100.00
57628;BME280;43451;49.060;10.616;2022-11-24T01:22:15;96031.81;;;5.05;100.00
57628;BME280;43451;49.060;10.616;2022-11-24T01:24:40;96037.63;;;5.07;100.00
57628;BME280;43451;49.060;10.616;2022-11-24T01:27:06;96037.22;;;5.05;100.00
57628;BME280;43451;49.060;10.616;2022-11-24T01:29:31;96034.06;;;5.00;100.00
57628;BME280;43451;49.060;10.616;2022-11-24T01:31:57;96048.78;;;5.09;100.00
57628;BME280;43451;49.060;10.616;2022-11-24T01:34:23;96038.34;;;5.04;100.00
57628;BME280;43451;49.060;10.616;2022-11-24T01:36:48;96048.38;;;5.07;100.00
57628;BME280;43451;49.060;10.616;2022-11-24T01:39:14;96051.00;;;5.00;100.00
57628;BME280;43451;49.060;10.616;2022-11-24T01:41:39;96060.22;;;4.99;100.00
57628;BME280;43451;49.060;10.616;2022-11-24T01:46:52;96059.81;;;4.97;100.00
57628;BME280;43451;49.060;10.616;2022-11-24T01:52:13;96073.06;;;5.17;100.00
57628;BME280;43451;49.060;10.616;2022-11-24T01:54:50;96073.06;;;5.17;100.00
57628;BME280;43451;49.060;10.616;2022-11-24T01:57:23;96079.59;;;5.16;100.00
57628;BME280;43451;49.060;10.616;2022-11-24T01:59:53;96091.91;;;5.17;100.00
57628;BME280;43451;49.060;10.616;2022-11-24T02:02:20;96088.13;;;5.25;100.00
57628;BME280;43451;49.060;10.616;2022-11-24T02:04:46;96089.63;;;5.19;100.00
57628;BME280;43451;49.060;10.616;2022-11-24T02:07:13;96091.97;;;5.24;100.00
57628;BME280;43451;49.060;10.616;2022-11-24T02:12:14;96093.69;;;5.43;100.00
57628;BME280;43451;49.060;10.616;2022-11-24T02:14:42;96095.75;;;5.64;100.00
57628;BME280;43451;49.060;10.616;2022-11-24T02:17:08;96102.75;;;5.75;100.00
57628;BME280;43451;49.060;10.616;2022-11-24T02:20:01;96098.97;;;5.84;100.00
57628;BME280;43451;49.060;10.616;2022-11-24T02:27:34;96102.53;;;5.95;100.00
57628;BME280;43451;49.060;10.616;2022-11-24T02:30:00;96099.38;;;5.89;100.00
57628;BME280;43451;49.060;10.616;2022-11-24T02:32:26;96106.25;;;5.79;100.00
57628;BME280;43451;49.060;10.616;2022-11-24T02:35:00;96110.16;;;5.89;100.00
57628;BME280;43451;49.060;10.616;2022-11-24T02:37:26;96111.72;;;5.90;100.00
57628;BME280;43451;49.060;10.616;2022-11-24T02:39:51;96115.56;;;5.89;100.00
57628;BME280;43451;49.060;10.616;2022-11-24T02:42:17;96118.25;;;5.89;100.00
57628;BME280;43451;49.060;10.616;2022-11-24T02:44:47;96119.81;;;5.90;100.00
57628;BME280;43451;49.060;10.616;2022-11-24T02:47:13;96121.66;;;5.82;100.00
57628;BME280;43451;49.060;10.616;2022-11-24T02:49:39;96131.19;;;5.66;100.00
57628;BME280;43451;49.060;10.616;2022-11-24T02:52:05;96133.78;;;5.55;100.00
57628;BME280;43451;49.060;10.616;2022-11-24T02:54:31;96130.28;;;5.51;100.00
57628;BME280;43451;49.060;10.616;2022-11-24T02:56:56;96136.38;;;5.44;100.00
57628;BME280;43451;49.060;10.616;2022-11-24T02:59:22;96138.31;;;5.44;100.00
57628;BME280;43451;49.060;10.616;2022-11-24T03:01:48;96139.56;;;5.53;100.00
57628;BME280;43451;49.060;10.616;2022-11-24T03:04:13;96144.63;;;5.62;100.00
57628;BME280;43451;49.060;10.616;2022-11-24T03:06:39;96138.16;;;5.74;100.00
57628;BME280;43451;49.060;10.616;2022-11-24T03:09:05;96152.44;;;5.78;100.00
57628;BME280;43451;49.060;10.616;2022-11-24T03:11:31;96151.69;;;5.77;100.00
57628;BME280;43451;49.060;10.616;2022-11-24T03:13:57;96145.50;;;5.77;100.00
57628;BME280;43451;49.060;10.616;2022-11-24T03:16:22;96144.00;;;5.83;100.00
57628;BME280;43451;49.060;10.616;2022-11-24T03:18:52;96150.66;;;5.93;100.00
57628;BME280;43451;49.060;10.616;2022-11-24T03:21:18;96147.16;;;5.92;100.00
57628;BME280;43451;49.060;10.616;2022-11-24T03:23:44;96145.19;;;5.89;100.00
57628;BME280;43451;49.060;10.616;2022-11-24T03:26:12;96151.00;;;5.91;100.00
57628;BME280;43451;49.060;10.616;2022-11-24T03:28:38;96161.75;;;5.84;100.00
57628;BME280;43451;49.060;10.616;2022-11-24T03:31:05;96151.72;;;5.85;100.00
57628;BME280;43451;49.060;10.616;2022-11-24T03:33:31;96159.84;;;5.92;100.00
57628;BME280;43451;49.060;10.616;2022-11-24T03:35:56;96162.47;;;5.77;100.00
57628;BME280;43451;49.060;10.616;2022-11-24T03:38:22;96167.47;;;5.79;100.00
57628;BME280;43451;49.060;10.616;2022-11-24T03:40:47;96173.28;;;5.81;100.00
57628;BME280;43451;49.060;10.616;2022-11-24T03:43:13;96169.81;;;5.80;100.00
57628;BME280;43451;49.060;10.616;2022-11-24T03:45:38;96169.75;;;5.77;100.00
57628;BME280;43451;49.060;10.616;2022-11-24T03:48:05;96176.22;;;5.65;100.00
57628;BME280;43451;49.060;10.616;2022-11-24T03:50:31;96169.00;;;5.80;100.00
57628;BME280;43451;49.060;10.616;2022-11-24T03:52:56;96180.16;;;5.75;100.00
57628;BME280;43451;49.060;10.616;2022-11-24T03:55:22;96181.34;;;5.77;100.00
57628;BME280;43451;49.060;10.616;2022-11-24T03:57:47;96188.63;;;5.77;100.00
57628;BME280;43451;49.060;10.616;2022-11-24T04:00:13;96189.81;;;5.83;100.00
57628;BME280;43451;49.060;10.616;2022-11-24T04:02:38;96191.41;;;5.84;100.00
57628;BME280;43451;49.060;10.616;2022-11-24T04:05:04;96190.97;;;5.82;100.00
57628;BME280;43451;49.060;10.616;2022-11-24T04:07:30;96186.34;;;5.82;100.00
57628;BME280;43451;49.060;10.616;2022-11-24T04:09:55;96195.97;;;5.80;100.00
57628;BME280;43451;49.060;10.616;2022-11-24T04:12:21;96192.47;;;5.76;100.00
57628;BME280;43451;49.060;10.616;2022-11-24T04:15:05;96192.38;;;5.65;100.00
57628;BME280;43451;49.060;10.616;2022-11-24T04:17:30;96186.16;;;5.57;100.00
57628;BME280;43451;49.060;10.616;2022-11-24T04:19:56;96205.28;;;5.45;100.00
57628;BME280;43451;49.060;10.616;2022-11-24T04:22:21;96200.78;;;5.56;100.00
57628;BME280;43451;49.060;10.616;2022-11-24T04:24:47;96197.00;;;5.65;100.00
57628;BME280;43451;49.060;10.616;2022-11-24T04:27:12;96201.69;;;5.71;100.00
57628;BME280;43451;49.060;10.616;2022-11-24T04:29:38;96207.31;;;5.55;100.00
57628;BME280;43451;49.060;10.616;2022-11-24T04:32:03;96219.91;;;5.44;100.00
57628;BME280;43451;49.060;10.616;2022-11-24T04:34:29;96218.22;;;5.32;100.00
57628;BME280;43451;49.060;10.616;2022-11-24T04:36:54;96225.94;;;5.30;100.00
57628;BME280;43451;49.060;10.616;2022-11-24T04:39:20;96226.94;;;5.19;100.00
57628;BME280;43451;49.060;10.616;2022-11-24T04:41:46;96236.50;;;5.12;100.00
57628;BME280;43451;49.060;10.616;2022-11-24T04:44:12;96228.00;;;5.10;100.00
57628;BME280;43451;49.060;10.616;2022-11-24T04:46:37;96234.94;;;5.11;100.00
57628;BME280;43451;49.060;10.616;2022-11-24T04:49:03;96237.63;;;5.11;100.00
57628;BME280;43451;49.060;10.616;2022-11-24T04:51:29;96244.50;;;5.05;100.00
57628;BME280;43451;49.060;10.616;2022-11-24T04:53:55;96243.34;;;5.06;100.00
57628;BME280;43451;49.060;10.616;2022-11-24T04:56:20;96250.09;;;5.23;100.00
57628;BME280;43451;49.060;10.616;2022-11-24T04:58:49;96259.72;;;5.24;100.00
57628;BME280;43451;49.060;10.616;2022-11-24T05:01:14;96263.44;;;5.16;100.00
57628;BME280;43451;49.060;10.616;2022-11-24T05:03:40;96273.09;;;5.17;100.00
57628;BME280;43451;49.060;10.616;2022-11-24T05:06:05;96266.34;;;5.34;100.00
57628;BME280;43451;49.060;10.616;2022-11-24T05:08:33;96273.03;;;5.47;100.00
57628;BME280;43451;49.060;10.616;2022-11-24T05:11:03;96271.00;;;5.37;100.00
57628;BME280;43451;49.060;10.616;2022-11-24T05:13:29;96282.63;;;5.45;100.00
57628;BME280;43451;49.060;10.616;2022-11-24T05:15:55;96274.16;;;5.43;100.00
57628;BME280;43451;49.060;10.616;2022-11-24T05:18:20;96276.13;;;5.46;100.00
57628;BME280;43451;49.060;10.616;2022-11-24T05:20:46;96273.78;;;5.44;100.00
57628;BME280;43451;49.060;10.616;2022-11-24T05:23:14;96276.47;;;5.44;100.00
57628;BME280;43451;49.060;10.616;2022-11-24T05:25:39;96280.97;;;5.33;100.00
57628;BME280;43451;49.060;10.616;2022-11-24T05:28:06;96287.81;;;5.27;100.00
57628;BME280;43451;49.060;10.616;2022-11-24T05:30:38;96295.03;;;5.19;100.00
57628;BME280;43451;49.060;10.616;2022-11-24T05:33:05;96291.03;;;5.06;100.00
57628;BME280;43451;49.060;10.616;2022-11-24T05:35:31;96288.78;;;5.11;100.00
57628;BME280;43451;49.060;10.616;2022-11-24T05:37:57;96288.06;;;5.15;100.00
57628;BME280;43451;49.060;10.616;2022-11-24T05:40:23;96289.47;;;5.05;100.00
57628;BME280;43451;49.060;10.616;2022-11-24T05:42:49;96288.84;;;5.15;100.00
57628;BME280;43451;49.060;10.616;2022-11-24T05:45:17;96294.69;;;5.21;100.00
57628;BME280;43451;49.060;10.616;2022-11-24T05:47:43;96294.63;;;5.17;100.00
57628;BME280;43451;49.060;10.616;2022-11-24T05:50:11;96295.72;;;5.12;100.00
57628;BME280;43451;49.060;10.616;2022-11-24T05:52:38;96289.34;;;4.94;100.00
57628;BME280;43451;49.060;10.616;2022-11-24T05:55:05;96292.72;;;4.87;100.00
57628;BME280;43451;49.060;10.616;2022-11-24T05:57:31;96293.03;;;4.82;100.00
57628;BME280;43451;49.060;10.616;2022-11-24T05:59:56;96291.13;;;4.83;100.00
57628;BME280;43451;49.060;10.616;2022-11-24T06:02:22;96294.44;;;4.73;100.00
57628;BME280;43451;49.060;10.616;2022-11-24T06:04:47;96288.94;;;4.65;100.00
57628;BME280;43451;49.060;10.616;2022-11-24T06:07:13;96280.47;;;4.63;100.00
57628;BME280;43451;49.060;10.616;2022-11-24T06:09:39;96294.31;;;4.65;100.00
57628;BME280;43451;49.060;10.616;2022-11-24T06:12:06;96292.69;;;4.57;100.00
57628;BME280;43451;49.060;10.616;2022-11-24T06:14:32;96302.72;;;4.60;100.00
57628;BME280;43451;49.060;10.616;2022-11-24T06:16:57;96305.09;;;4.65;100.00
57628;BME280;43451;49.060;10.616;2022-11-24T06:19:23;96308.09;;;4.60;100.00
57628;BME280;43451;49.060;10.616;2022-11-24T06:21:48;96314.66;;;4.63;100.00
57628;BME280;43451;49.060;10.616;2022-11-24T06:24:14;96311.09;;;4.55;100.00
57628;BME280;43451;49.060;10.616;2022-11-24T06:26:40;96303.13;;;4.62;100.00
57628;BME280;43451;49.060;10.616;2022-11-24T06:29:06;96306.53;;;4.59;100.00
57628;BME280;43451;49.060;10.616;2022-11-24T06:31:31;96304.94;;;4.55;100.00
57628;BME280;43451;49.060;10.616;2022-11-24T06:33:58;96313.72;;;4.52;100.00
57628;BME280;43451;49.060;10.616;2022-11-24T06:36:23;96314.09;;;4.50;100.00
57628;BME280;43451;49.060;10.616;2022-11-24T06:38:50;96322.16;;;4.50;100.00
57628;BME280;43451;49.060;10.616;2022-11-24T06:41:16;96329.00;;;4.44;100.00
57628;BME280;43451;49.060;10.616;2022-11-24T06:43:42;96335.94;;;4.45;100.00
57628;BME280;43451;49.060;10.616;2022-11-24T06:46:08;96329.28;;;4.39;100.00
57628;BME280;43451;49.060;10.616;2022-11-24T06:48:34;96333.75;;;4.54;100.00
57628;BME280;43451;49.060;10.616;2022-11-24T06:51:03;96325.84;;;4.65;100.00
57628;BME280;43451;49.060;10.616;2022-11-24T06:53:36;96326.66;;;4.69;100.00
57628;BME280;43451;49.060;10.616;2022-11-24T06:56:04;96322.47;;;4.72;100.00
57628;BME280;43451;49.060;10.616;2022-11-24T06:58:30;96327.34;;;4.62;100.00
57628;BME280;43451;49.060;10.616;2022-11-24T07:00:55;96330.50;;;4.68;100.00
57628;BME280;43451;49.060;10.616;2022-11-24T07:03:21;96323.97;;;4.69;100.00
57628;BME280;43451;49.060;10.616;2022-11-24T07:05:46;96331.22;;;4.65;100.00
57628;BME280;43451;49.060;10.616;2022-11-24T07:08:12;96332.00;;;4.65;100.00
57628;BME280;43451;49.060;10.616;2022-11-24T07:10:38;96324.78;;;4.70;100.00
57628;BME280;43451;49.060;10.616;2022-11-24T07:13:06;96326.34;;;4.74;100.00
57628;BME280;43451;49.060;10.616;2022-11-24T07:15:32;96335.63;;;4.77;100.00
57628;BME280;43451;49.060;10.616;2022-11-24T07:17:57;96341.09;;;4.84;100.00
57628;BME280;43451;49.060;10.616;2022-11-24T07:20:23;96332.22;;;4.80;100.00
57628;BME280;43451;49.060;10.616;2022-11-24T07:22:48;96334.47;;;4.78;100.00
57628;BME280;43451;49.060;10.616;2022-11-24T07:25:14;96334.09;;;4.76;100.00
57628;BME280;43451;49.060;10.616;2022-11-24T07:27:41;96334.44;;;4.74;100.00
57628;BME280;43451;49.060;10.616;2022-11-24T07:30:07;96339.91;;;4.81;100.00
57628;BME280;43451;49.060;10.616;2022-11-24T07:32:32;96356.00;;;4.78;100.00
57628;BME280;43451;49.060;10.616;2022-11-24T07:34:58;96359.16;;;4.83;100.00
57628;BME280;43451;49.060;10.616;2022-11-24T07:37:24;96365.53;;;4.98;100.00
57628;BME280;43451;49.060;10.616;2022-11-24T07:39:49;96357.47;;;4.98;100.00
57628;BME280;43451;49.060;10.616;2022-11-24T07:42:14;96365.13;;;4.96;100.00
57628;BME280;43451;49.060;10.616;2022-11-24T07:44:40;96365.47;;;4.95;100.00
57628;BME280;43451;49.060;10.616;2022-11-24T07:47:05;96375.88;;;4.96;100.00
57628;BME280;43451;49.060;10.616;2022-11-24T07:49:31;96377.81;;;4.96;100.00
57628;BME280;43451;49.060;10.616;2022-11-24T07:51:56;96363.88;;;4.90;100.00
57628;BME280;43451;49.060;10.616;2022-11-24T07:54:22;96364.75;;;4.98;100.00
57628;BME280;43451;49.060;10.616;2022-11-24T07:56:47;96369.78;;;4.99;100.00
57628;BME280;43451;49.060;10.616;2022-11-24T07:59:13;96373.28;;;5.03;100.00
57628;BME280;43451;49.060;10.616;2022-11-24T08:01:39;96366.44;;;5.09;100.00
57628;BME280;43451;49.060;10.616;2022-11-24T08:04:06;96363.13;;;5.20;100.00
57628;BME280;43451;49.060;10.616;2022-11-24T08:06:31;96375.63;;;5.35;100.00
57628;BME280;43451;49.060;10.616;2022-11-24T08:08:57;96361.09;;;5.40;100.00
57628;BME280;43451;49.060;10.616;2022-11-24T08:11:23;96369.59;;;5.45;100.00
57628;BME280;43451;49.060;10.616;2022-11-24T08:13:49;96380.78;;;5.47;100.00
57628;BME280;43451;49.060;10.616;2022-11-24T08:16:17;96381.56;;;5.48;100.00
57628;BME280;43451;49.060;10.616;2022-11-24T08:18:43;96374.69;;;5.50;100.00
57628;BME280;43451;49.060;10.616;2022-11-24T08:21:13;96376.22;;;5.51;100.00
57628;BME280;43451;49.060;10.616;2022-11-24T08:23:39;96378.53;;;5.49;100.00
57628;BME280;43451;49.060;10.616;2022-11-24T08:26:07;96380.47;;;5.52;100.00
57628;BME280;43451;49.060;10.616;2022-11-24T08:28:35;96380.28;;;5.38;100.00
57628;BME280;43451;49.060;10.616;2022-11-24T08:31:02;96385.31;;;5.40;100.00
57628;BME280;43451;49.060;10.616;2022-11-24T08:33:28;96379.13;;;5.39;100.00
57628;BME280;43451;49.060;10.616;2022-11-24T08:35:54;96389.19;;;5.42;100.00
57628;BME280;43451;49.060;10.616;2022-11-24T08:38:20;96385.75;;;5.45;100.00
57628;BME280;43451;49.060;10.616;2022-11-24T08:40:45;96394.72;;;5.53;100.00
57628;BME280;43451;49.060;10.616;2022-11-24T08:43:10;96388.59;;;5.56;100.00
57628;BME280;43451;49.060;10.616;2022-11-24T08:45:36;96394.69;;;5.49;100.00
57628;BME280;43451;49.060;10.616;2022-11-24T08:48:02;96399.03;;;5.61;100.00
57628;BME280;43451;49.060;10.616;2022-11-24T08:50:27;96397.78;;;5.51;100.00
57628;BME280;43451;49.060;10.616;2022-11-24T08:52:53;96400.97;;;5.61;100.00
57628;BME280;43451;49.060;10.616;2022-11-24T08:55:18;96407.13;;;5.61;100.00
57628;BME280;43451;49.060;10.616;2022-11-24T08:57:44;96412.97;;;5.67;100.00
57628;BME280;43451;49.060;10.616;2022-11-24T09:00:10;96410.19;;;5.59;100.00
57628;BME280;43451;49.060;10.616;2022-11-24T09:02:36;96417.78;;;5.50;100.00
57628;BME280;43451;49.060;10.616;2022-11-24T09:05:01;96419.25;;;5.44;100.00
57628;BME280;43451;49.060;10.616;2022-11-24T09:07:27;96424.09;;;5.62;100.00
57628;BME280;43451;49.060;10.616;2022-11-24T09:09:52;96421.72;;;5.56;100.00
57628;BME280;43451;49.060;10.616;2022-11-24T09:12:18;96416.88;;;5.69;100.00
57628;BME280;43451;49.060;10.616;2022-11-24T09:14:43;96430.38;;;5.73;100.00
57628;BME280;43451;49.060;10.616;2022-11-24T09:17:09;96421.75;;;5.90;100.00
57628;BME280;43451;49.060;10.616;2022-11-24T09:19:34;96416.75;;;5.92;100.00
57628;BME280;43451;49.060;10.616;2022-11-24T09:21:59;96421.63;;;5.83;100.00
57628;BME280;43451;49.060;10.616;2022-11-24T09:24:25;96421.22;;;5.77;100.00
57628;BME280;43451;49.060;10.616;2022-11-24T09:26:52;96431.19;;;5.77;100.00
57628;BME280;43451;49.060;10.616;2022-11-24T09:29:18;96426.63;;;5.81;100.00
57628;BME280;43451;49.060;10.616;2022-11-24T09:31:43;96425.06;;;5.80;100.00
57628;BME280;43451;49.060;10.616;2022-11-24T09:34:12;96437.28;;;5.70;100.00
57628;BME280;43451;49.060;10.616;2022-11-24T09:36:38;96439.78;;;5.86;100.00
57628;BME280;43451;49.060;10.616;2022-11-24T09:39:03;96438.53;;;5.80;100.00
57628;BME280;43451;49.060;10.616;2022-11-24T09:41:42;96435.78;;;5.73;100.00
57628;BME280;43451;49.060;10.616;2022-11-24T09:44:21;96437.28;;;5.70;100.00
57628;BME280;43451;49.060;10.616;2022-11-24T09:49:55;96441.94;;;5.73;100.00
57628;BME280;43451;49.060;10.616;2022-11-24T09:55:04;96441.56;;;5.75;100.00
57628;BME280;43451;49.060;10.616;2022-11-24T09:57:39;96437.91;;;5.90;100.00
57628;BME280;43451;49.060;10.616;2022-11-24T10:00:12;96435.97;;;5.87;100.00
57628;BME280;43451;49.060;10.616;2022-11-24T10:02:38;96433.84;;;6.03;100.00
57628;BME280;43451;49.060;10.616;2022-11-24T10:05:05;96438.91;;;6.09;100.00
57628;BME280;43451;49.060;10.616;2022-11-24T10:07:42;96444.03;;;6.21;100.00
57628;BME280;43451;49.060;10.616;2022-11-24T10:10:20;96446.88;;;6.32;100.00
57628;BME280;43451;49.060;10.616;2022-11-24T10:15:40;96447.28;;;6.37;100.00
57628;BME280;43451;49.060;10.616;2022-11-24T10:20:51;96458.16;;;6.41;100.00
57628;BME280;43451;49.060;10.616;2022-11-24T10:28:54;96452.34;;;6.39;100.00
57628;BME280;43451;49.060;10.616;2022-11-24T10:31:24;96460.91;;;6.48;100.00
57628;BME280;43451;49.060;10.616;2022-11-24T10:33:55;96452.03;;;6.47;100.00
57628;BME280;43451;49.060;10.616;2022-11-24T10:36:31;96457.81;;;6.49;100.00
57628;BME280;43451;49.060;10.616;2022-11-24T10:39:19;96451.34;;;6.54;100.00
57628;BME280;43451;49.060;10.616;2022-11-24T10:42:55;96462.84;;;6.47;100.00
57628;BME280;43451;49.060;10.616;2022-11-24T10:45:13;96460.88;;;6.44;100.00
57628;BME280;43451;49.060;10.616;2022-11-24T10:47:40;96464.38;;;6.48;100.00
57628;BME280;43451;49.060;10.616;2022-11-24T10:58:34;96452.13;;;6.58;100.00
57628;BME280;43451;49.060;10.616;2022-11-24T11:01:19;96455.72;;;6.69;100.00
57628;BME280;43451;49.060;10.616;2022-11-24T11:03:57;96456.81;;;6.65;100.00
57628;BME280;43451;49.060;10.616;2022-11-24T11:06:28;96456.06;;;6.68;100.00
57628;BME280;43451;49.060;10.616;2022-11-24T11:11:33;96463.09;;;6.76;100.00
57628;BME280;43451;49.060;10.616;2022-11-24T11:14:00;96457.09;;;7.01;100.00
57628;BME280;43451;49.060;10.616;2022-11-24T11:22:15;96459.97;;;7.22;100.00
57628;BME280;43451;49.060;10.616;2022-11-24T11:24:45;96458.06;;;7.26;100.00
57628;BME280;43451;49.060;10.616;2022-11-24T11:27:22;96476.56;;;7.20;100.00
57628;BME280;43451;49.060;10.616;2022-11-24T11:29:51;96456.19;;;7.30;100.00
57628;BME280;43451;49.060;10.616;2022-11-24T11:32:27;96461.19;;;7.32;100.00
57628;BME280;43451;49.060;10.616;2022-11-24T11:34:54;96454.03;;;7.61;100.00
57628;BME280;43451;49.060;10.616;2022-11-24T11:37:24;96465.28;;;7.74;100.00
57628;BME280;43451;49.060;10.616;2022-11-24T11:39:51;96458.66;;;7.60;100.00
57628;BME280;43451;49.060;10.616;2022-11-24T11:47:27;96473.69;;;7.54;100.00
57628;BME280;43451;49.060;10.616;2022-11-24T11:49:53;96471.38;;;7.53;100.00
57628;BME280;43451;49.060;10.616;2022-11-24T11:53:02;96479.88;;;7.55;100.00
57628;BME280;43451;49.060;10.616;2022-11-24T12:25:25;96498.25;;;7.31;100.00
57628;BME280;43451;49.060;10.616;2022-11-24T12:47:20;96521.19;;;7.04;100.00
57628;BME280;43451;49.060;10.616;2022-11-24T12:50:00;96525.09;;;7.10;100.00
57628;BME280;43451;49.060;10.616;2022-11-24T12:52:31;96518.94;;;7.13;100.00
57628;BME280;43451;49.060;10.616;2022-11-24T12:54:57;96519.38;;;7.15;100.00
57628;BME280;43451;49.060;10.616;2022-11-24T12:57:29;96522.47;;;7.17;100.00
57628;BME280;43451;49.060;10.616;2022-11-24T13:00:07;96525.56;;;7.19;100.00
57628;BME280;43451;49.060;10.616;2022-11-24T13:06:21;96525.50;;;7.12;100.00
57628;BME280;43451;49.060;10.616;2022-11-24T13:08:39;96529.03;;;7.19;100.00
57628;BME280;43451;49.060;10.616;2022-11-24T13:14:13;96531.25;;;7.07;100.00
57628;BME280;43451;49.060;10.616;2022-11-24T13:16:54;96540.50;;;7.06;100.00
57628;BME280;43451;49.060;10.616;2022-11-24T13:19:23;96546.00;;;7.16;100.00
57628;BME280;43451;49.060;10.616;2022-11-24T13:21:59;96547.16;;;7.19;100.00
57628;BME280;43451;49.060;10.616;2022-11-24T13:24:33;96554.53;;;7.22;100.00
57628;BME280;43451;49.060;10.616;2022-11-24T13:29:43;96562.59;;;7.15;100.00
57628;BME280;43451;49.060;10.616;2022-11-24T13:42:24;96559.78;;;7.04;100.00
57628;BME280;43451;49.060;10.616;2022-11-24T13:44:59;96562.09;;;7.02;100.00
57628;BME280;43451;49.060;10.616;2022-11-24T13:47:42;96564.06;;;7.09;100.00
57628;BME280;43451;49.060;10.616;2022-11-24T13:53:11;96574.94;;;7.16;100.00
57628;BME280;43451;49.060;10.616;2022-11-24T13:55:40;96571.09;;;7.17;100.00
57628;BME280;43451;49.060;10.616;2022-11-24T13:58:37;96565.69;;;7.17;100.00
57628;BME280;43451;49.060;10.616;2022-11-24T14:01:23;96575.38;;;7.21;100.00
57628;BME280;43451;49.060;10.616;2022-11-24T14:06:27;96580.75;;;7.18;100.00
57628;BME280;43451;49.060;10.616;2022-11-24T14:08:53;96576.06;;;7.11;100.00
57628;BME280;43451;49.060;10.616;2022-11-24T14:11:19;96581.75;;;7.03;100.00
57628;BME280;43451;49.060;10.616;2022-11-24T14:13:45;96584.38;;;6.92;100.00
57628;BME280;43451;49.060;10.616;2022-11-24T14:18:41;96580.06;;;6.87;100.00
57628;BME280;43451;49.060;10.616;2022-11-24T14:23:56;96588.91;;;6.84;100.00
57628;BME280;43451;49.060;10.616;2022-11-24T14:26:29;96590.78;;;6.80;100.00
57628;BME280;43451;49.060;10.616;2022-11-24T14:29:20;96591.13;;;6.75;100.00
57628;BME280;43451;49.060;10.616;2022-11-24T14:31:57;96590.00;;;6.76;100.00
57628;BME280;43451;49.060;10.616;2022-11-24T14:34:24;96588.78;;;6.73;100.00
57628;BME280;43451;49.060;10.616;2022-11-24T14:36:51;96601.84;;;6.68;100.00
57628;BME280;43451;49.060;10.616;2022-11-24T14:39:20;96591.00;;;6.64;100.00
57628;BME280;43451;49.060;10.616;2022-11-24T14:42:01;96587.88;;;6.62;100.00
57628;BME280;43451;49.060;10.616;2022-11-24T14:45:17;96595.22;;;6.62;100.00
57628;BME280;43451;49.060;10.616;2022-11-24T14:47:27;96600.56;;;6.58;100.00
57628;BME280;43451;49.060;10.616;2022-11-24T14:49:54;96601.34;;;6.59;100.00
57628;BME280;43451;49.060;10.616;2022-11-24T14:52:22;96600.28;;;6.67;100.00
57628;BME280;43451;49.060;10.616;2022-11-24T14:54:56;96604.13;;;6.66;100.00
57628;BME280;43451;49.060;10.616;2022-11-24T14:57:35;96611.81;;;6.64;100.00
57628;BME280;43451;49.060;10.616;2022-11-24T15:00:29;96607.16;;;6.61;100.00
57628;BME280;43451;49.060;10.616;2022-11-24T15:03:12;96608.72;;;6.62;100.00
57628;BME280;43451;49.060;10.616;2022-11-24T15:05:54;96614.81;;;6.55;100.00
57628;BME280;43451;49.060;10.616;2022-11-24T15:08:23;96613.94;;;6.47;100.00
57628;BME280;43451;49.060;10.616;2022-11-24T15:10:55;96617.69;;;6.39;100.00